Time;durP1;ratioP1;P1;durP2;ratioP2;P2;SDS_P1;SDS_P2;PMS_P1;PMS_P2;Temp;Humidity;BMP_temperature;BMP_pressure;BME280_temperature;BME280_humidity;BME280_pressure;Samples;Min_cycle;Max_cycle;Signal;HPM_P1;HPM_P2
2023/02/24 00:01:17;;;;;;;83.10;67.40;;;;;;;8.27;67.24;99654.47;111070;1256;21951;-75
2023/02/24 00:04:13;;;;;;;83.40;65.90;;;;;;;8.29;67.32;99653.17;110923;1253;21960;-74
2023/02/24 00:10:28;;;;;;;91.60;71.00;;;;;;;8.23;67.32;99647.86;110317;1262;21976;-77
2023/02/24 00:13:37;;;;;;;85.70;67.70;;;;;;;8.23;67.50;99644.20;110392;1261;21978;-77
2023/02/24 00:16:28;;;;;;;;;;;;;;;;;;;;;
2023/02/24 00:19:31;;;;;;;74.10;61.50;;;;;;;8.25;67.58;99634.63;110606;1261;21973;-77
2023/02/24 00:22:23;;;;;;;71.80;59.40;;;;;;;8.28;67.72;99629.10;110605;1261;21985;-75
2023/02/24 00:25:20;;;;;;;70.40;60.80;;;;;;;8.27;67.90;99625.86;110651;1262;22059;-75
2023/02/24 00:28:00;;;;;;;67.90;58.60;;;;;;;8.28;68.03;99618.20;110632;1261;21970;-76
2023/02/24 00:31:44;;;;;;;72.30;58.50;;;;;;;8.26;68.20;99614.13;110442;1261;23849;-76
2023/02/24 00:34:46;;;;;;;68.30;57.40;;;;;;;8.26;68.27;99613.94;110610;1261;23716;-77
2023/02/24 00:38:00;;;;;;;;;;;;;;;;;;;;;
2023/02/24 00:41:11;;;;;;;71.60;59.50;;;;;;;8.23;68.65;99611.82;110610;1257;21966;-77
2023/02/24 00:44:29;;;;;;;74.30;61.40;;;;;;;8.20;69.01;99604.99;110547;1262;22000;-77
2023/02/24 00:48:14;;;;;;;72.90;61.80;;;;;;;8.20;69.12;99602.05;110796;1256;21951;-76
2023/02/24 00:51:22;;;;;;;67.70;58.10;;;;;;;8.20;69.12;99591.98;110893;1255;21982;-77
2023/02/24 00:54:36;;;;;;;70.00;57.90;;;;;;;8.20;69.34;99590.95;111002;1256;23686;-76
2023/02/24 00:58:18;;;;;;;66.40;57.10;;;;;;;8.18;69.46;99591.90;111198;1256;22453;-76
2023/02/24 01:02:05;;;;;;;65.80;56.10;;;;;;;8.15;69.86;99586.31;111047;1255;22490;-77
2023/02/24 01:06:06;;;;;;;;;;;;;;;;;;;;;
2023/02/24 01:09:23;;;;;;;69.40;58.60;;;;;;;8.14;70.34;99578.34;111183;1255;22653;-76
2023/02/24 01:13:25;;;;;;;;;;;;;;;;;;;;;
2023/02/24 01:16:43;;;;;;;67.90;56.00;;;;;;;8.09;70.79;99567.64;110728;1260;23829;-74
2023/02/24 01:24:16;;;;;;;66.00;56.30;;;;;;;8.14;71.20;99563.12;109288;1274;21984;-76
2023/02/24 01:27:39;;;;;;;69.10;57.20;;;;;;;8.13;71.41;99558.30;108890;1279;22008;-76
2023/02/24 01:30:55;;;;;;;67.60;56.90;;;;;;;8.13;71.52;99552.38;108495;1281;22057;-76
2023/02/24 01:34:04;;;;;;;63.60;55.60;;;;;;;8.13;71.49;99555.35;108635;1282;22038;-77
2023/02/24 01:37:36;;;;;;;;;;;;;;;;;;;;;
2023/02/24 01:41:06;;;;;;;63.40;53.80;;;;;;;8.14;72.15;99549.61;108607;1281;23641;-76
2023/02/24 01:44:05;;;;;;;59.30;52.90;;;;;;;8.17;72.19;99551.36;108210;1285;23775;-76
2023/02/24 01:50:06;;;;;;;59.20;51.50;;;;;;;8.21;72.27;99536.66;107825;1289;22011;-76
2023/02/24 01:53:00;;;;;;;62.50;55.60;;;;;;;8.23;72.52;99527.22;107935;1290;23001;-76
2023/02/24 01:56:05;;;;;;;70.00;60.00;;;;;;;8.26;72.34;99523.80;108432;1286;22011;-77
2023/02/24 01:58:42;;;;;;;70.80;63.10;;;;;;;8.25;72.44;99518.13;108716;1275;22028;-75
2023/02/24 02:01:54;;;;;;;67.50;59.70;;;;;;;8.25;72.57;99513.08;108845;1275;21998;-75
2023/02/24 02:04:58;;;;;;;;;;;;;;;;;;;;;
2023/02/24 02:08:11;;;;;;;68.00;60.60;;;;;;;8.22;72.61;99509.74;108541;1283;23053;-77
2023/02/24 02:11:10;;;;;;;70.40;62.80;;;;;;;8.19;72.55;99504.86;108364;1283;22015;-76
2023/02/24 02:17:53;;;;;;;70.90;63.10;;;;;;;8.18;72.82;99499.17;109005;1275;22059;-76
2023/02/24 02:21:26;;;;;;;74.90;63.50;;;;;;;8.14;72.83;99494.48;109551;1271;23750;-75
2023/02/24 02:24:38;;;;;;;66.00;58.80;;;;;;;8.11;73.00;99491.32;109657;1271;21984;-75
2023/02/24 02:29:00;;;;;;;69.40;61.60;;;;;;;8.09;73.11;99488.80;109593;1271;23082;-74
2023/02/24 02:32:16;;;;;;;72.50;62.10;;;;;;;8.09;73.44;99486.36;108841;1278;21992;-75
2023/02/24 02:35:23;;;;;;;64.50;57.60;;;;;;;8.12;73.50;99482.80;108607;1281;21997;-75
2023/02/24 02:38:34;;;;;;;67.40;60.20;;;;;;;8.13;73.40;99478.92;108754;1276;23055;-75
2023/02/24 02:42:00;;;;;;;67.50;59.00;;;;;;;8.13;73.38;99474.07;109016;1275;22744;-76
2023/02/24 02:45:39;;;;;;;69.80;60.30;;;;;;;8.11;73.53;99470.02;108780;1279;22069;-77
2023/02/24 02:49:18;;;;;;;65.60;58.40;;;;;;;8.10;73.76;99466.23;108295;1285;22053;-76
2023/02/24 02:52:52;;;;;;;75.30;59.30;;;;;;;8.09;73.70;99462.13;108401;1285;23151;-76
2023/02/24 02:56:18;;;;;;;67.90;57.00;;;;;;;8.09;73.93;99457.80;108393;1285;23738;-75
2023/02/24 02:59:21;;;;;;;69.70;57.00;;;;;;;8.10;73.93;99454.96;108520;1281;23045;-76
2023/02/24 03:03:06;;;;;;;;;;;;;;;;;;;;;
2023/02/24 03:07:09;;;;;;;62.50;55.70;;;;;;;8.13;74.34;99449.27;109097;1263;22034;-78
2023/02/24 03:10:41;;;;;;;64.10;57.30;;;;;;;8.16;74.44;99445.53;108756;1279;21988;-75
2023/02/24 03:14:01;;;;;;;64.80;54.70;;;;;;;8.16;74.46;99440.68;108842;1279;23006;-75
2023/02/24 03:17:38;;;;;;;65.80;56.60;;;;;;;8.18;74.39;99436.45;108648;1274;23221;-76
2023/02/24 03:22:23;;;;;;;;;;;;;;;;;;;;;
2023/02/24 03:29:23;;;;;;;67.00;59.10;;;;;;;8.18;74.80;99427.92;108945;1278;22016;-74
2023/02/24 03:32:56;;;;;;;65.60;56.00;;;;;;;8.20;74.87;99426.30;108448;1283;22080;-76
2023/02/24 03:36:43;;;;;;;;;;;;;;;;;;;;;
2023/02/24 03:39:45;;;;;;;62.80;54.90;;;;;;;8.21;74.89;99417.43;108167;1286;23660;-75
2023/02/24 03:42:42;;;;;;;64.80;58.00;;;;;;;8.21;75.01;99410.66;108195;1287;23663;-75
2023/02/24 03:45:42;;;;;;;64.20;57.30;;;;;;;8.24;75.21;99414.67;108223;1287;23063;-75
2023/02/24 03:48:52;;;;;;;68.00;56.00;;;;;;;8.27;75.12;99411.98;108590;1283;23378;-76
2023/02/24 03:52:27;;;;;;;62.90;56.10;;;;;;;8.27;75.18;99410.42;108958;1273;21998;-75
2023/02/24 03:56:57;;;;;;;58.70;52.60;;;;;;;8.24;75.26;99408.10;109298;1271;22242;-76
2023/02/24 04:00:21;;;;;;;56.50;50.80;;;;;;;8.22;75.47;99406.27;108459;1285;22032;-76
2023/02/24 04:03:38;;;;;;;55.40;49.60;;;;;;;8.23;75.52;99400.20;108519;1283;21992;-76
2023/02/24 04:06:48;;;;;;;56.00;50.00;;;;;;;8.23;75.59;99398.08;108870;1277;23641;-75
2023/02/24 04:10:51;;;;;;;56.20;50.30;;;;;;;8.24;75.64;99396.50;109220;1273;22008;-75
2023/02/24 04:15:08;;;;;;;;;;;;;;;;;;;;;
2023/02/24 04:22:11;;;;;;;;;;;;;;;;;;;;;
2023/02/24 04:25:44;;;;;;;;;;;;;;;;;;;;;
2023/02/24 04:29:23;;;;;;;51.90;46.30;;;;;;;8.22;76.19;99379.56;107917;1292;22600;-76
2023/02/24 04:32:34;;;;;;;51.80;46.30;;;;;;;8.23;76.41;99375.56;107939;1292;22380;-75
2023/02/24 04:35:44;;;;;;;51.40;45.80;;;;;;;8.25;76.14;99372.02;107904;1281;22304;-74
2023/02/24 04:38:25;;;;;;;50.50;45.10;;;;;;;8.24;76.07;99367.02;108507;1281;23126;-76
2023/02/24 04:41:07;;;;;;;50.60;45.50;;;;;;;8.25;76.12;99365.23;108408;1281;22427;-75
2023/02/24 04:43:48;;;;;;;;;;;;;;;;;;;;;
2023/02/24 04:46:58;;;;;;;48.90;43.90;;;;;;;8.29;76.17;99363.35;108307;1279;21991;-76
2023/02/24 04:49:48;;;;;;;49.10;44.10;;;;;;;8.29;76.21;99361.63;108828;1280;22199;-75
2023/02/24 04:52:53;;;;;;;44.90;40.40;;;;;;;8.31;76.27;99349.73;108650;1279;22235;-76
2023/02/24 04:55:44;;;;;;;47.20;42.60;;;;;;;8.29;76.37;99348.42;109024;1273;23058;-75
2023/02/24 04:58:47;;;;;;;;;;;;;;;8.27;76.33;99350.09;109852;1268;21963;-75
2023/02/24 05:02:00;;;;;;;46.40;41.30;;;;;;;8.19;76.55;99343.84;109438;1267;22984;-76
2023/02/24 05:04:52;;;;;;;58.90;52.50;;;;;;;8.19;76.64;99341.58;109386;1272;22010;-76
2023/02/24 05:07:58;;;;;;;50.40;45.20;;;;;;;8.24;76.55;99338.23;109370;1272;23730;-78
2023/02/24 05:11:31;;;;;;;;;;;;;;;;;;;;;
2023/02/24 05:14:43;;;;;;;60.90;54.20;;;;;;;8.21;76.67;99334.06;109557;1271;22007;-76
2023/02/24 05:18:27;;;;;;;49.40;44.30;;;;;;;8.19;76.70;99334.14;109928;1267;21979;-75
2023/02/24 05:21:47;;;;;;;52.00;46.60;;;;;;;8.19;76.81;99336.22;110662;1261;23046;-76
2023/02/24 05:24:46;;;;;;;46.10;41.60;;;;;;;8.20;76.75;99336.88;110585;1261;23616;-76
2023/02/24 05:27:29;;;;;;;44.80;40.30;;;;;;;8.18;76.52;99334.16;109532;1268;23043;-74
2023/02/24 05:30:23;;;;;;;45.00;40.40;;;;;;;8.17;76.64;99333.87;109810;1268;21876;-75
2023/02/24 05:33:09;;;;;;;41.00;36.80;;;;;;;8.15;76.56;99330.31;109191;1272;21995;-75
2023/02/24 05:36:12;;;;;;;42.40;38.30;;;;;;;8.15;76.73;99332.07;109308;1272;23737;-75
2023/02/24 05:42:45;;;;;;;44.00;39.60;;;;;;;8.12;76.84;99319.19;108933;1277;22010;-79
2023/02/24 05:46:16;;;;;;;;;;;;;;;;;;;;;
2023/02/24 05:49:26;;;;;;;46.00;41.20;;;;;;;8.13;76.86;99308.73;108969;1278;23081;-78
2023/02/24 05:52:33;;;;;;;48.30;43.10;;;;;;;8.16;76.75;99310.38;109355;1273;21983;-78
2023/02/24 05:55:42;;;;;;;43.00;38.80;;;;;;;8.13;76.81;99310.52;109339;1273;22370;-78
2023/02/24 05:58:27;;;;;;;42.70;38.20;;;;;;;8.15;76.71;99314.22;109325;1273;21947;-79
2023/02/24 06:01:28;;;;;;;43.10;38.60;;;;;;;8.14;76.74;99314.77;109241;1268;21981;-79
2023/02/24 06:08:04;;;;;;;44.70;39.50;;;;;;;8.12;76.73;99318.19;109453;1272;21976;-79
2023/02/24 06:10:49;;;;;;;45.90;40.70;;;;;;;8.13;76.71;99315.86;109520;1272;21986;-78
2023/02/24 06:13:43;;;;;;;46.40;41.50;;;;;;;8.14;76.71;99312.00;109524;1272;21967;-79
2023/02/24 06:17:02;;;;;;;48.60;41.40;;;;;;;8.15;76.70;99312.83;110027;1269;22443;-79
2023/02/24 06:20:33;;;;;;;43.30;38.70;;;;;;;8.11;76.60;99308.14;110053;1267;23039;-79
2023/02/24 06:23:26;;;;;;;44.50;39.70;;;;;;;8.11;76.72;99307.61;110080;1267;22923;-79
2023/02/24 06:26:34;;;;;;;38.80;34.60;;;;;;;8.10;76.56;99310.27;110056;1267;22841;-79
2023/02/24 06:29:40;;;;;;;38.60;34.50;;;;;;;8.04;76.55;99309.70;109184;1266;21984;-78
2023/02/24 06:33:22;;;;;;;;;;;;;;;;;;;;;
2023/02/24 06:36:25;;;;;;;37.10;33.20;;;;;;;7.98;76.94;99309.59;109225;1273;21985;-81
2023/02/24 06:39:18;;;;;;;36.40;32.60;;;;;;;7.99;76.75;99310.92;109453;1274;22961;-77
2023/02/24 06:42:30;;;;;;;;;;;;;;;;;;;;;
2023/02/24 06:45:33;;;;;;;33.50;30.00;;;;;;;7.88;76.82;99312.98;109145;1274;22020;-77
2023/02/24 06:48:45;;;;;;;;;;;;;;;7.84;76.79;99311.95;109119;1274;22169;-77
2023/02/24 06:51:42;;;;;;;29.40;26.20;;;;;;;7.77;77.07;99310.32;109165;1261;23062;-78
2023/02/24 06:54:29;;;;;;;25.70;23.10;;;;;;;7.77;76.92;99311.34;109751;1268;22214;-77
2023/02/24 06:58:43;;;;;;;24.70;21.90;;;;;;;7.68;76.82;99307.59;109868;1268;23652;-77
2023/02/24 07:01:32;;;;;;;23.50;20.60;;;;;;;7.62;76.90;99307.66;109322;1270;22076;-78
2023/02/24 07:04:57;;;;;;;23.00;19.10;;;;;;;7.58;76.71;99312.48;109223;1273;22739;-77
2023/02/24 07:08:01;;;;;;;19.30;17.30;;;;;;;7.46;76.63;99315.58;109476;1272;22038;-76
2023/02/24 07:11:00;;;;;;;21.50;18.40;;;;;;;7.41;76.77;99315.95;109232;1272;22266;-79
2023/02/24 07:14:32;;;;;;;;;;;;;;;;;;;;;
2023/02/24 07:17:55;;;;;;;21.00;18.70;;;;;;;7.34;76.89;99320.09;109242;1267;22059;-77
2023/02/24 07:21:22;;;;;;;22.90;19.10;;;;;;;7.36;76.95;99317.23;109448;1273;21972;-77
2023/02/24 07:24:37;;;;;;;28.40;21.70;;;;;;;7.39;77.00;99316.94;109469;1273;21971;-77
2023/02/24 07:27:36;;;;;;;26.70;21.90;;;;;;;7.44;77.05;99311.18;109184;1273;21979;-75
2023/02/24 07:30:33;;;;;;;28.10;22.00;;;;;;;7.50;77.04;99308.49;109446;1273;23606;-77
2023/02/24 07:33:21;;;;;;;33.00;22.90;;;;;;;7.56;76.92;99304.80;109466;1273;22024;-76
2023/02/24 07:36:09;;;;;;;27.40;21.80;;;;;;;7.60;76.70;99302.58;109465;1270;23805;-75
2023/02/24 07:38:57;;;;;;;29.10;24.10;;;;;;;7.62;76.49;99302.63;109841;1265;21976;-76
2023/02/24 07:41:35;;;;;;;30.80;24.90;;;;;;;7.65;76.41;99298.70;110059;1260;24129;-75
2023/02/24 07:44:24;;;;;;;34.20;26.20;;;;;;;7.71;76.44;99298.78;109969;1267;22408;-75
2023/02/24 07:47:19;;;;;;;29.70;25.10;;;;;;;7.76;76.42;99294.92;109132;1273;21983;-75
2023/02/24 07:50:04;;;;;;;31.80;23.60;;;;;;;7.76;76.04;99289.92;109298;1273;22048;-75
2023/02/24 07:53:15;;;;;;;37.10;26.50;;;;;;;7.75;75.88;99292.94;109241;1272;21991;-75
2023/02/24 07:55:53;;;;;;;28.00;23.30;;;;;;;7.73;75.72;99293.52;109526;1270;22152;-75
2023/02/24 07:58:46;;;;;;;37.30;26.30;;;;;;;7.75;75.67;99292.77;109662;1270;21990;-74
2023/02/24 08:01:47;;;;;;;31.90;22.90;;;;;;;7.74;75.35;99289.48;109298;1274;22437;-73
2023/02/24 08:04:40;;;;;;;34.60;24.60;;;;;;;7.71;75.32;99286.48;109424;1268;22074;-74
2023/02/24 08:07:41;;;;;;;38.70;26.50;;;;;;;7.71;75.16;99286.31;109704;1268;21989;-75
2023/02/24 08:10:55;;;;;;;33.10;24.70;;;;;;;7.73;75.05;99287.27;109793;1260;23042;-75
2023/02/24 08:13:36;;;;;;;38.30;27.70;;;;;;;7.75;74.94;99284.92;109917;1268;22011;-77
2023/02/24 08:16:17;;;;;;;41.20;29.60;;;;;;;7.78;74.81;99282.23;110063;1267;21977;-76
2023/02/24 08:19:12;;;;;;;;;;;;;;;;;;;;;
2023/02/24 08:21:50;;;;;;;42.00;29.60;;;;;;;7.80;74.47;99272.57;110325;1265;23599;-75
2023/02/24 08:24:28;;;;;;;40.70;31.20;;;;;;;7.86;74.69;99269.23;110324;1265;22070;-76
2023/02/24 08:27:06;;;;;;;44.80;33.50;;;;;;;7.92;74.46;99266.71;110463;1265;22415;-76
2023/02/24 08:29:56;;;;;;;;;;;;;;;;;;;;;
2023/02/24 08:32:42;;;;;;;45.30;33.10;;;;;;;7.98;74.32;99264.02;110295;1265;23765;-75
2023/02/24 08:35:34;;;;;;;43.80;32.00;;;;;;;7.99;74.06;99258.77;110305;1260;21969;-75
2023/02/24 08:38:26;;;;;;;47.10;33.20;;;;;;;7.98;74.07;99256.55;110419;1261;22013;-74
2023/02/24 08:41:10;;;;;;;47.80;34.70;;;;;;;8.01;73.95;99250.89;110563;1261;24309;-78
2023/02/24 08:43:51;;;;;;;48.60;33.70;;;;;;;8.01;73.69;99251.74;110394;1261;22740;-75
2023/02/24 08:46:36;;;;;;;43.20;31.60;;;;;;;8.02;73.55;99250.35;109747;1268;21995;-74
2023/02/24 08:49:32;;;;;;;38.80;29.00;;;;;;;8.00;73.34;99244.86;109203;1274;22999;-75
2023/02/24 08:52:10;;;;;;;39.80;28.70;;;;;;;8.01;73.46;99244.98;109256;1274;22003;-74
2023/02/24 08:55:00;;;;;;;38.30;28.20;;;;;;;8.05;73.43;99244.98;109114;1274;23724;-75
2023/02/24 08:58:17;;;;;;;36.90;27.50;;;;;;;8.07;73.32;99244.38;109564;1269;23711;-75
2023/02/24 09:00:53;;;;;;;33.60;24.50;;;;;;;8.12;73.23;99239.98;109927;1269;21967;-74
2023/02/24 09:03:32;;;;;;;33.10;25.10;;;;;;;8.19;73.33;99232.91;107910;1269;2016333;-75
2023/02/24 09:06:10;;;;;;;31.00;24.80;;;;;;;8.34;73.63;99225.67;110358;1264;21980;-75
2023/02/24 09:09:16;;;;;;;34.90;27.50;;;;;;;8.52;73.54;99225.02;110820;1256;23586;-76
2023/02/24 09:11:48;;;;;;;34.00;27.70;;;;;;;8.71;73.39;99222.19;110783;1256;22736;-75
2023/02/24 09:14:37;;;;;;;37.20;28.00;;;;;;;8.93;73.15;99220.12;110895;1256;22017;-75
2023/02/24 09:17:19;;;;;;;36.30;27.60;;;;;;;9.12;72.91;99214.64;110885;1256;22428;-75
2023/02/24 09:23:06;;;;;;;26.80;21.70;;;;;;;9.38;71.15;99210.59;110477;1262;21973;-75
2023/02/24 09:25:43;;;;;;;30.80;24.80;;;;;;;9.37;70.34;99207.85;110459;1262;22897;-75
2023/02/24 09:28:47;;;;;;;28.20;24.50;;;;;;;9.29;69.69;99206.33;110073;1268;22903;-76
2023/02/24 09:31:54;;;;;;;32.50;25.40;;;;;;;9.17;69.27;99203.80;109981;1268;21984;-80
2023/02/24 09:34:53;;;;;;;32.50;27.30;;;;;;;9.10;69.15;99198.23;109629;1268;23000;-74
2023/02/24 09:37:36;;;;;;;32.80;26.80;;;;;;;9.09;69.08;99195.39;110105;1268;23599;-77
2023/02/24 09:40:38;;;;;;;36.60;28.30;;;;;;;9.06;68.78;99190.64;109434;1265;22743;-74
2023/02/24 09:43:26;;;;;;;27.80;22.80;;;;;;;9.02;68.71;99190.85;110126;1267;21995;-75
2023/02/24 09:46:15;;;;;;;26.30;22.30;;;;;;;8.99;68.60;99188.56;110127;1262;22011;-76
2023/02/24 09:49:25;;;;;;;;;;;;;;;;;;;;;
2023/02/24 09:52:42;;;;;;;34.80;27.40;;;;;;;8.97;68.52;99182.75;110449;1263;22248;-75
2023/02/24 09:55:59;;;;;;;28.20;23.20;;;;;;;8.99;68.45;99175.56;110463;1263;21973;-75
2023/02/24 09:59:33;;;;;;;28.10;22.20;;;;;;;9.13;68.86;99175.05;109827;1268;21989;-75
2023/02/24 10:02:26;;;;;;;27.80;20.40;;;;;;;9.32;68.70;99174.92;109197;1273;22077;-76
2023/02/24 10:05:37;;;;;;;24.10;18.80;;;;;;;9.38;67.95;99176.52;109300;1273;21964;-76
2023/02/24 10:08:33;;;;;;;25.80;19.60;;;;;;;9.35;67.42;99167.67;109445;1270;23670;-76
2023/02/24 10:11:31;;;;;;;28.50;21.10;;;;;;;9.35;67.40;99162.98;109960;1260;21989;-76
2023/02/24 10:14:18;;;;;;;26.00;19.00;;;;;;;9.36;67.08;99163.29;109196;1274;23073;-75
2023/02/24 10:17:24;;;;;;;19.50;16.40;;;;;;;9.27;66.55;99167.70;108939;1274;22429;-76
2023/02/24 10:21:08;;;;;;;19.10;14.30;;;;;;;9.05;65.94;99163.79;109284;1274;23641;-76
2023/02/24 10:24:10;;;;;;;19.20;14.80;;;;;;;8.85;66.25;99163.08;109497;1270;23755;-75
2023/02/24 10:27:26;;;;;;;19.10;14.40;;;;;;;8.79;66.54;99157.28;109687;1270;25017;-75
2023/02/24 10:30:31;;;;;;;17.60;14.40;;;;;;;8.88;66.99;99151.84;109293;1273;22045;-75
2023/02/24 10:33:44;;;;;;;17.60;15.30;;;;;;;8.86;66.55;99147.05;109864;1268;22014;-75
2023/02/24 10:36:46;;;;;;;18.00;14.30;;;;;;;8.92;66.91;99139.83;109511;1268;22353;-76
2023/02/24 10:39:41;;;;;;;16.40;14.20;;;;;;;8.92;66.80;99135.29;110495;1261;21982;-75
2023/02/24 10:42:53;;;;;;;22.70;16.60;;;;;;;8.92;66.66;99126.13;110738;1261;21984;-75
2023/02/24 10:46:04;;;;;;;18.30;14.00;;;;;;;8.93;66.68;99121.53;110591;1261;23740;-76
2023/02/24 10:49:12;;;;;;;14.70;12.50;;;;;;;8.97;66.66;99114.90;110967;1256;21967;-76
2023/02/24 10:51:56;;;;;;;19.50;14.90;;;;;;;8.99;66.55;99114.67;110967;1256;21992;-74
2023/02/24 10:55:03;;;;;;;17.50;14.00;;;;;;;8.99;66.29;99109.12;111019;1256;23019;-76
2023/02/24 10:57:54;;;;;;;21.00;13.80;;;;;;;9.00;66.41;99105.77;111153;1256;21979;-76
2023/02/24 11:04:32;;;;;;;12.40;10.40;;;;;;;9.36;66.93;99096.45;110404;1263;23599;-75
2023/02/24 11:07:23;;;;;;;9.50;8.40;;;;;;;10.25;66.82;99092.27;110423;1262;23058;-75
2023/02/24 11:10:41;;;;;;;13.00;10.00;;;;;;;10.61;64.52;99084.17;110383;1257;22978;-75
2023/02/24 11:17:32;;;;;;;10.10;8.60;;;;;;;10.36;61.92;99076.20;110430;1263;22989;-75
2023/02/24 11:20:52;;;;;;;14.30;12.10;;;;;;;9.93;61.64;99069.92;109868;1269;21991;-75
2023/02/24 11:23:33;;;;;;;15.30;13.10;;;;;;;9.76;61.92;99067.52;110432;1264;21972;-75
2023/02/24 11:26:34;;;;;;;11.70;9.50;;;;;;;9.68;61.83;99063.45;110364;1263;24370;-75
2023/02/24 11:29:52;;;;;;;;;;;;;;;;;;;;;
2023/02/24 11:33:28;;;;;;;12.30;8.30;;;;;;;9.42;61.72;99052.04;109464;1269;23730;-75
2023/02/24 11:36:31;;;;;;;;;;;;;;;;;;;;;
2023/02/24 11:39:45;;;;;;;10.60;7.80;;;;;;;9.32;61.58;99034.11;109800;1269;23168;-76
2023/02/24 11:42:51;;;;;;;16.40;9.40;;;;;;;9.40;61.64;99029.88;109738;1267;21965;-76
2023/02/24 11:46:09;;;;;;;12.30;9.40;;;;;;;9.49;61.26;99029.27;109431;1269;21990;-76
2023/02/24 11:52:32;;;;;;;11.20;9.10;;;;;;;9.59;60.84;99022.96;108953;1277;23726;-76
2023/02/24 11:55:41;;;;;;;14.40;9.00;;;;;;;9.61;59.92;99015.35;109134;1270;23042;-76
2023/02/24 11:59:15;;;;;;;13.60;9.20;;;;;;;9.47;59.43;99008.16;110130;1267;23753;-77
2023/02/24 12:02:52;;;;;;;13.50;8.80;;;;;;;9.31;59.26;98999.25;110022;1267;23878;-77
2023/02/24 12:05:42;;;;;;;13.50;8.40;;;;;;;9.17;59.15;99002.15;109217;1275;23738;-77
2023/02/24 12:08:52;;;;;;;12.80;6.80;;;;;;;9.05;58.84;99007.09;109411;1271;22769;-76
2023/02/24 12:12:32;;;;;;;16.50;9.60;;;;;;;8.91;58.57;99002.44;109457;1271;21983;-76
2023/02/24 12:15:44;;;;;;;15.30;10.00;;;;;;;8.76;58.60;98990.26;109446;1271;23055;-76
2023/02/24 12:19:26;;;;;;;;;;;;;;;8.69;59.03;98991.45;109601;1266;22048;-75
2023/02/24 12:22:14;;;;;;;16.20;9.10;;;;;;;8.69;59.21;98986.27;109512;1273;22054;-76
2023/02/24 12:24:55;;;;;;;11.60;9.30;;;;;;;8.65;58.71;98982.11;110136;1268;21996;-76
2023/02/24 12:28:12;;;;;;;15.40;10.10;;;;;;;8.55;58.54;98978.11;109980;1268;23728;-75
2023/02/24 12:31:58;;;;;;;22.60;15.30;;;;;;;8.42;58.83;98970.45;108879;1278;21996;-75
2023/02/24 12:34:45;;;;;;;23.40;14.90;;;;;;;8.35;58.97;98972.18;108489;1283;22847;-76
2023/02/24 12:37:41;;;;;;;19.10;11.90;;;;;;;8.30;59.25;98970.52;108501;1283;23112;-76
2023/02/24 12:40:38;;;;;;;18.60;11.10;;;;;;;8.27;59.47;98965.83;108158;1285;22007;-75
2023/02/24 12:43:29;;;;;;;18.60;11.10;;;;;;;8.22;59.26;98965.90;108118;1290;22015;-76
2023/02/24 12:46:18;;;;;;;14.90;11.50;;;;;;;8.13;59.58;98966.20;108056;1290;22659;-77
2023/02/24 12:49:36;;;;;;;21.00;15.40;;;;;;;8.05;59.54;98960.17;108227;1285;22000;-76
2023/02/24 12:53:07;;;;;;;17.00;11.40;;;;;;;7.96;59.96;98959.89;108732;1280;22015;-78
2023/02/24 12:56:17;;;;;;;;;;;;;;;;;;;;;
2023/02/24 12:59:24;;;;;;;16.00;10.00;;;;;;;8.00;60.33;98941.02;109240;1274;23637;-78
2023/02/24 13:02:59;;;;;;;21.20;13.30;;;;;;;8.06;60.42;98936.58;109099;1274;23734;-79
2023/02/24 13:05:41;;;;;;;18.10;12.10;;;;;;;8.12;60.42;98926.74;109890;1252;23045;-79
2023/02/24 13:08:41;;;;;;;20.90;13.30;;;;;;;8.16;60.43;98919.42;110811;1255;23580;-80
2023/02/24 13:12:04;;;;;;;16.20;11.60;;;;;;;8.21;60.32;98918.65;111298;1251;22072;-84
2023/02/24 13:15:06;;;;;;;20.00;12.10;;;;;;;8.16;60.15;98911.78;110908;1262;21932;-86
2023/02/24 13:18:26;;;;;;;18.20;11.40;;;;;;;8.13;60.13;98907.27;110839;1262;23645;-82
2023/02/24 13:22:02;;;;;;;13.10;10.40;;;;;;;8.11;60.11;98904.23;110721;1257;22149;-82
2023/02/24 13:25:04;;;;;;;16.80;10.60;;;;;;;8.09;60.08;98898.81;110814;1262;23794;-82
2023/02/24 13:28:35;;;;;;;20.40;12.90;;;;;;;8.06;59.91;98897.04;110854;1262;22447;-82
2023/02/24 13:32:02;;;;;;;12.70;9.00;;;;;;;7.97;60.08;98892.86;110831;1262;21978;-80
2023/02/24 13:35:15;;;;;;;12.20;8.20;;;;;;;8.00;60.18;98890.61;110785;1258;22686;-78
2023/02/24 13:38:27;;;;;;;20.50;11.20;;;;;;;7.94;59.87;98887.26;110685;1260;24305;-78
2023/02/24 13:41:35;;;;;;;14.90;8.90;;;;;;;7.84;59.99;98892.07;110414;1262;21985;-77
2023/02/24 13:44:28;;;;;;;11.50;7.60;;;;;;;7.78;59.99;98893.06;110578;1262;22116;-78
2023/02/24 13:47:22;;;;;;;12.60;8.10;;;;;;;7.77;60.14;98892.10;110369;1262;21974;-76
2023/02/24 13:50:42;;;;;;;;;;;;;;;;;;;;;
2023/02/24 13:54:15;;;;;;;14.70;9.20;;;;;;;7.68;59.63;98884.56;111226;1254;24322;-79
2023/02/24 13:57:23;;;;;;;13.90;9.80;;;;;;;7.62;59.98;98875.83;111132;1255;21980;-78
2023/02/24 14:00:47;;;;;;;22.00;11.10;;;;;;;7.65;60.14;98879.89;111127;1255;21999;-78
2023/02/24 14:03:29;;;;;;;19.00;11.80;;;;;;;7.65;60.19;98872.39;111168;1254;21968;-77
2023/02/24 14:06:35;;;;;;;15.10;9.10;;;;;;;7.67;60.25;98871.10;110870;1255;21990;-79
2023/02/24 14:09:34;;;;;;;17.70;12.00;;;;;;;7.68;60.29;98871.09;111246;1243;23015;-79
2023/02/24 14:12:44;;;;;;;18.30;13.00;;;;;;;7.67;60.29;98864.36;110688;1259;22420;-78
2023/02/24 14:15:33;;;;;;;20.60;10.50;;;;;;;7.66;60.19;98860.06;110740;1259;23018;-79
2023/02/24 14:18:31;;;;;;;15.60;8.30;;;;;;;7.62;60.15;98859.91;110632;1259;21962;-77
2023/02/24 14:21:33;;;;;;;12.20;8.70;;;;;;;7.60;60.20;98858.48;110709;1259;22975;-78
2023/02/24 14:24:33;;;;;;;17.80;10.70;;;;;;;7.56;60.06;98855.38;110190;1264;21976;-77
2023/02/24 14:27:33;;;;;;;10.40;7.10;;;;;;;7.52;59.88;98855.94;109801;1268;23629;-78
2023/02/24 14:30:40;;;;;;;8.00;6.20;;;;;;;7.48;59.73;98856.27;109743;1266;24186;-77
2023/02/24 14:33:52;;;;;;;9.40;5.30;;;;;;;7.40;59.75;98856.50;110400;1263;23657;-78
2023/02/24 14:37:17;;;;;;;;;;;;;;;;;;;;;
2023/02/24 14:40:32;;;;;;;10.30;5.50;;;;;;;7.11;59.80;98861.70;110241;1266;21961;-78
2023/02/24 14:44:01;;;;;;;;;;;;;;;;;;;;;
2023/02/24 14:47:03;;;;;;;10.10;7.00;;;;;;;6.95;59.74;98849.83;111086;1255;21935;-78
2023/02/24 14:54:01;;;;;;;13.60;6.80;;;;;;;6.94;59.56;98836.05;110617;1262;21984;-78
2023/02/24 14:57:18;;;;;;;9.30;4.80;;;;;;;6.92;59.27;98829.20;109827;1269;21976;-78
2023/02/24 15:00:52;;;;;;;8.90;4.60;;;;;;;6.85;58.81;98821.40;109678;1269;23798;-78
2023/02/24 15:03:50;;;;;;;8.50;4.10;;;;;;;6.82;58.83;98812.88;109915;1269;22033;-78
2023/02/24 15:06:39;;;;;;;12.20;4.80;;;;;;;6.79;58.61;98811.30;109555;1269;21988;-79
2023/02/24 15:09:43;;;;;;;9.70;5.10;;;;;;;6.74;58.50;98804.25;109536;1273;23749;-78
2023/02/24 15:12:56;;;;;;;9.10;5.40;;;;;;;6.66;58.51;98802.73;109418;1273;22025;-78
2023/02/24 15:15:45;;;;;;;8.70;4.90;;;;;;;6.58;58.57;98794.12;109484;1271;21997;-79
2023/02/24 15:18:54;;;;;;;11.90;6.80;;;;;;;6.53;58.68;98792.98;109442;1272;23062;-79
2023/02/24 15:21:53;;;;;;;14.40;6.30;;;;;;;6.52;58.88;98786.28;109396;1273;23798;-78
2023/02/24 15:24:57;;;;;;;9.60;6.30;;;;;;;6.51;58.99;98776.14;109327;1273;22036;-77
2023/02/24 15:27:48;;;;;;;19.60;10.10;;;;;;;6.51;59.13;98776.31;109838;1269;21985;-79
2023/02/24 15:30:31;;;;;;;15.00;8.60;;;;;;;6.53;59.26;98775.87;110234;1262;22245;-79
2023/02/24 15:33:27;;;;;;;15.20;8.80;;;;;;;6.51;59.32;98773.00;110739;1255;22031;-79
2023/02/24 15:39:44;;;;;;;16.20;9.30;;;;;;;6.30;59.81;98761.91;110404;1262;22084;-79
2023/02/24 15:42:33;;;;;;;14.70;10.00;;;;;;;6.27;59.88;98762.38;110302;1262;22081;-79
2023/02/24 15:45:48;;;;;;;;;;;;;;;;;;;;;
2023/02/24 15:49:33;;;;;;;20.10;11.60;;;;;;;6.24;60.13;98756.98;110446;1266;24354;-78
2023/02/24 15:53:31;;;;;;;;;;;;;;;;;;;;;
2023/02/24 15:58:25;;;;;;;;;;;;;;;;;;;;;
2023/02/24 16:01:56;;;;;;;21.60;13.30;;;;;;;6.20;60.70;98747.48;110476;1268;24976;-81
2023/02/24 16:05:46;;;;;;;27.80;18.50;;;;;;;6.20;60.75;98748.00;110426;1268;21998;-80
2023/02/24 16:08:52;;;;;;;36.50;27.90;;;;;;;6.19;60.71;98743.20;109312;1266;21997;-80
2023/02/24 16:13:02;;;;;;;;;;;;;;;;;;;;;
2023/02/24 16:16:33;;;;;;;;;;;;;;;;;;;;;